sensor_id;sensor_type;location;lat;lon;timestamp;temperature;humidity
30150;DHT22;16962;48.646;9.026;2024-01-15T00:02:35;-2.30;73.50
30150;DHT22;16962;48.646;9.026;2024-01-15T00:05:23;-2.30;86.90
30150;DHT22;16962;48.646;9.026;2024-01-15T00:08:11;-2.30;99.90
30150;DHT22;16962;48.646;9.026;2024-01-15T00:10:59;-2.30;99.90
30150;DHT22;16962;48.646;9.026;2024-01-15T00:13:47;-2.30;99.90
30150;DHT22;16962;48.646;9.026;2024-01-15T00:16:34;-2.30;99.90
30150;DHT22;16962;48.646;9.026;2024-01-15T00:19:22;-2.30;99.90
30150;DHT22;16962;48.646;9.026;2024-01-15T00:22:11;-2.30;99.90
30150;DHT22;16962;48.646;9.026;2024-01-15T00:24:58;-2.40;99.90
30150;DHT22;16962;48.646;9.026;2024-01-15T00:27:47;-2.40;99.90
30150;DHT22;16962;48.646;9.026;2024-01-15T00:30:35;-2.40;99.90
30150;DHT22;16962;48.646;9.026;2024-01-15T00:33:22;-2.40;99.90
30150;DHT22;16962;48.646;9.026;2024-01-15T00:36:10;-2.40;99.90
30150;DHT22;16962;48.646;9.026;2024-01-15T00:39:00;-2.40;99.90
30150;DHT22;16962;48.646;9.026;2024-01-15T00:41:47;-2.40;99.90
30150;DHT22;16962;48.646;9.026;2024-01-15T00:44:36;-2.50;99.90
30150;DHT22;16962;48.646;9.026;2024-01-15T00:47:24;-2.50;99.90
30150;DHT22;16962;48.646;9.026;2024-01-15T00:50:20;-2.50;99.90
30150;DHT22;16962;48.646;9.026;2024-01-15T00:53:09;-2.60;99.90
30150;DHT22;16962;48.646;9.026;2024-01-15T00:55:57;-2.60;99.90
30150;DHT22;16962;48.646;9.026;2024-01-15T00:58:44;-2.70;1.00
30150;DHT22;16962;48.646;9.026;2024-01-15T01:01:33;-2.70;1.00
30150;DHT22;16962;48.646;9.026;2024-01-15T01:04:21;-2.70;1.00
30150;DHT22;16962;48.646;9.026;2024-01-15T01:07:11;-2.70;1.00
30150;DHT22;16962;48.646;9.026;2024-01-15T01:10:01;-2.70;54.70
30150;DHT22;16962;48.646;9.026;2024-01-15T01:12:49;-2.60;99.90
30150;DHT22;16962;48.646;9.026;2024-01-15T01:15:38;-2.60;99.90
30150;DHT22;16962;48.646;9.026;2024-01-15T01:18:26;-2.50;99.90
30150;DHT22;16962;48.646;9.026;2024-01-15T01:21:16;-2.40;99.90
30150;DHT22;16962;48.646;9.026;2024-01-15T01:24:05;-2.40;99.90
30150;DHT22;16962;48.646;9.026;2024-01-15T01:26:53;-2.30;99.90
30150;DHT22;16962;48.646;9.026;2024-01-15T01:29:40;-2.20;99.90
30150;DHT22;16962;48.646;9.026;2024-01-15T01:32:30;-2.20;99.90
30150;DHT22;16962;48.646;9.026;2024-01-15T01:35:20;-2.20;99.90
30150;DHT22;16962;48.646;9.026;2024-01-15T01:38:08;-2.10;99.90
30150;DHT22;16962;48.646;9.026;2024-01-15T01:40:57;-2.10;99.90
30150;DHT22;16962;48.646;9.026;2024-01-15T01:43:46;-2.10;99.90
30150;DHT22;16962;48.646;9.026;2024-01-15T01:46:34;-2.10;99.90
30150;DHT22;16962;48.646;9.026;2024-01-15T01:49:28;-2.10;99.90
30150;DHT22;16962;48.646;9.026;2024-01-15T01:52:17;-2.10;99.90
30150;DHT22;16962;48.646;9.026;2024-01-15T01:55:06;-2.10;99.90
30150;DHT22;16962;48.646;9.026;2024-01-15T01:57:55;-2.10;99.90
30150;DHT22;16962;48.646;9.026;2024-01-15T02:00:47;-2.10;99.90
30150;DHT22;16962;48.646;9.026;2024-01-15T02:03:36;-2.20;99.90
30150;DHT22;16962;48.646;9.026;2024-01-15T02:06:27;-2.20;99.90
30150;DHT22;16962;48.646;9.026;2024-01-15T02:09:15;-2.30;99.90
30150;DHT22;16962;48.646;9.026;2024-01-15T02:12:03;-2.30;99.90
30150;DHT22;16962;48.646;9.026;2024-01-15T02:14:51;-2.30;99.90
30150;DHT22;16962;48.646;9.026;2024-01-15T02:18:00;-2.30;99.90
30150;DHT22;16962;48.646;9.026;2024-01-15T02:20:48;-2.40;1.00
30150;DHT22;16962;48.646;9.026;2024-01-15T02:23:37;-2.40;1.00
30150;DHT22;16962;48.646;9.026;2024-01-15T02:26:26;-2.40;1.00
30150;DHT22;16962;48.646;9.026;2024-01-15T02:29:15;-2.40;1.00
30150;DHT22;16962;48.646;9.026;2024-01-15T02:32:08;-2.40;1.00
30150;DHT22;16962;48.646;9.026;2024-01-15T02:34:55;-2.40;12.40
30150;DHT22;16962;48.646;9.026;2024-01-15T02:37:44;-2.50;99.90
30150;DHT22;16962;48.646;9.026;2024-01-15T02:40:33;-2.50;99.90
30150;DHT22;16962;48.646;9.026;2024-01-15T02:43:21;-2.60;99.90
30150;DHT22;16962;48.646;9.026;2024-01-15T02:46:08;-2.70;1.00
30150;DHT22;16962;48.646;9.026;2024-01-15T02:48:56;-2.70;99.90
30150;DHT22;16962;48.646;9.026;2024-01-15T02:51:43;-2.70;1.00
30150;DHT22;16962;48.646;9.026;2024-01-15T02:54:31;-2.70;1.00
30150;DHT22;16962;48.646;9.026;2024-01-15T02:57:18;-2.80;94.40
30150;DHT22;16962;48.646;9.026;2024-01-15T03:00:10;-2.80;99.90
30150;DHT22;16962;48.646;9.026;2024-01-15T03:02:59;-2.90;1.00
30150;DHT22;16962;48.646;9.026;2024-01-15T03:05:48;-2.80;99.90
30150;DHT22;16962;48.646;9.026;2024-01-15T03:08:38;-2.90;1.00
30150;DHT22;16962;48.646;9.026;2024-01-15T03:11:29;-3.00;99.90
30150;DHT22;16962;48.646;9.026;2024-01-15T03:14:20;-3.00;1.00
30150;DHT22;16962;48.646;9.026;2024-01-15T03:17:13;-2.90;49.50
30150;DHT22;16962;48.646;9.026;2024-01-15T03:20:07;-2.90;7.60
30150;DHT22;16962;48.646;9.026;2024-01-15T03:22:56;-2.90;1.00
30150;DHT22;16962;48.646;9.026;2024-01-15T03:25:44;-3.00;99.90
30150;DHT22;16962;48.646;9.026;2024-01-15T03:28:31;-3.00;99.90
30150;DHT22;16962;48.646;9.026;2024-01-15T03:31:23;-3.00;99.90
30150;DHT22;16962;48.646;9.026;2024-01-15T03:34:16;-3.10;1.00
30150;DHT22;16962;48.646;9.026;2024-01-15T03:37:10;-3.10;99.90
30150;DHT22;16962;48.646;9.026;2024-01-15T03:40:02;-3.10;82.60
30150;DHT22;16962;48.646;9.026;2024-01-15T03:42:51;-2.80;99.90
30150;DHT22;16962;48.646;9.026;2024-01-15T03:45:40;-2.30;99.90
30150;DHT22;16962;48.646;9.026;2024-01-15T03:48:27;-2.00;1.00
30150;DHT22;16962;48.646;9.026;2024-01-15T03:51:19;-1.80;99.90
30150;DHT22;16962;48.646;9.026;2024-01-15T03:54:07;-1.70;1.00
30150;DHT22;16962;48.646;9.026;2024-01-15T03:56:56;-1.70;1.00
30150;DHT22;16962;48.646;9.026;2024-01-15T03:59:46;-1.70;99.90
30150;DHT22;16962;48.646;9.026;2024-01-15T04:02:36;-1.70;99.90
30150;DHT22;16962;48.646;9.026;2024-01-15T04:05:24;-1.60;99.90
30150;DHT22;16962;48.646;9.026;2024-01-15T04:08:12;-1.70;99.90
30150;DHT22;16962;48.646;9.026;2024-01-15T04:10:59;-1.70;99.90
30150;DHT22;16962;48.646;9.026;2024-01-15T04:13:48;-1.80;99.90
30150;DHT22;16962;48.646;9.026;2024-01-15T04:16:37;-1.80;1.00
30150;DHT22;16962;48.646;9.026;2024-01-15T04:19:27;-1.80;1.00
30150;DHT22;16962;48.646;9.026;2024-01-15T04:22:15;-1.70;1.00
30150;DHT22;16962;48.646;9.026;2024-01-15T04:25:05;-1.70;1.00
30150;DHT22;16962;48.646;9.026;2024-01-15T04:27:54;-1.80;1.00
30150;DHT22;16962;48.646;9.026;2024-01-15T04:30:41;-1.80;1.00
30150;DHT22;16962;48.646;9.026;2024-01-15T04:33:29;-1.70;1.00
30150;DHT22;16962;48.646;9.026;2024-01-15T04:36:17;-1.70;53.90
30150;DHT22;16962;48.646;9.026;2024-01-15T04:39:04;-1.70;30.30
30150;DHT22;16962;48.646;9.026;2024-01-15T04:41:52;-1.70;79.00
30150;DHT22;16962;48.646;9.026;2024-01-15T04:44:43;-1.70;99.90
30150;DHT22;16962;48.646;9.026;2024-01-15T04:47:31;-1.70;99.90
30150;DHT22;16962;48.646;9.026;2024-01-15T04:50:19;-1.70;99.90
30150;DHT22;16962;48.646;9.026;2024-01-15T04:53:06;-1.60;55.90
30150;DHT22;16962;48.646;9.026;2024-01-15T04:56:00;-1.70;54.40
30150;DHT22;16962;48.646;9.026;2024-01-15T04:58:49;-1.70;51.60
30150;DHT22;16962;48.646;9.026;2024-01-15T05:01:38;-1.70;97.70
30150;DHT22;16962;48.646;9.026;2024-01-15T05:04:25;-1.70;95.60
30150;DHT22;16962;48.646;9.026;2024-01-15T05:07:13;-1.60;49.50
30150;DHT22;16962;48.646;9.026;2024-01-15T05:10:02;-1.60;94.60
30150;DHT22;16962;48.646;9.026;2024-01-15T05:12:51;-1.70;99.90
30150;DHT22;16962;48.646;9.026;2024-01-15T05:15:40;-1.60;99.90
30150;DHT22;16962;48.646;9.026;2024-01-15T05:18:28;-1.60;99.90
30150;DHT22;16962;48.646;9.026;2024-01-15T05:21:16;-1.60;99.90
30150;DHT22;16962;48.646;9.026;2024-01-15T05:24:03;-1.70;99.90
30150;DHT22;16962;48.646;9.026;2024-01-15T05:26:51;-1.70;99.90
30150;DHT22;16962;48.646;9.026;2024-01-15T05:29:38;-1.70;99.90
30150;DHT22;16962;48.646;9.026;2024-01-15T05:32:27;-1.70;99.90
30150;DHT22;16962;48.646;9.026;2024-01-15T05:35:14;-1.70;99.90
30150;DHT22;16962;48.646;9.026;2024-01-15T05:38:02;-1.70;1.00
30150;DHT22;16962;48.646;9.026;2024-01-15T05:40:50;-1.70;75.60
30150;DHT22;16962;48.646;9.026;2024-01-15T05:43:38;-1.70;99.90
30150;DHT22;16962;48.646;9.026;2024-01-15T05:46:26;-1.70;32.10
30150;DHT22;16962;48.646;9.026;2024-01-15T05:49:14;-1.80;62.00
30150;DHT22;16962;48.646;9.026;2024-01-15T05:52:04;-1.70;99.90
30150;DHT22;16962;48.646;9.026;2024-01-15T05:54:51;-1.80;99.90
30150;DHT22;16962;48.646;9.026;2024-01-15T05:57:40;-1.80;99.90
30150;DHT22;16962;48.646;9.026;2024-01-15T06:00:29;-1.80;99.90
30150;DHT22;16962;48.646;9.026;2024-01-15T06:03:17;-1.80;1.00
30150;DHT22;16962;48.646;9.026;2024-01-15T06:06:06;-1.80;99.90
30150;DHT22;16962;48.646;9.026;2024-01-15T06:08:57;-1.80;99.90
30150;DHT22;16962;48.646;9.026;2024-01-15T06:11:51;-1.80;99.90
30150;DHT22;16962;48.646;9.026;2024-01-15T06:14:41;-1.80;99.90
30150;DHT22;16962;48.646;9.026;2024-01-15T06:17:29;-1.80;99.90
30150;DHT22;16962;48.646;9.026;2024-01-15T06:20:17;-1.80;99.90
30150;DHT22;16962;48.646;9.026;2024-01-15T06:23:07;-1.80;93.50
30150;DHT22;16962;48.646;9.026;2024-01-15T06:25:55;-1.80;1.00
30150;DHT22;16962;48.646;9.026;2024-01-15T06:28:45;-1.70;1.00
30150;DHT22;16962;48.646;9.026;2024-01-15T06:31:38;-1.70;1.00
30150;DHT22;16962;48.646;9.026;2024-01-15T06:34:25;-1.80;99.90
30150;DHT22;16962;48.646;9.026;2024-01-15T06:37:13;-1.70;99.90
30150;DHT22;16962;48.646;9.026;2024-01-15T06:40:15;-1.60;1.00
30150;DHT22;16962;48.646;9.026;2024-01-15T06:43:09;-1.60;99.90
30150;DHT22;16962;48.646;9.026;2024-01-15T06:46:00;-1.70;99.90
30150;DHT22;16962;48.646;9.026;2024-01-15T06:48:53;-1.70;1.00
30150;DHT22;16962;48.646;9.026;2024-01-15T06:51:41;-1.70;1.00
30150;DHT22;16962;48.646;9.026;2024-01-15T06:54:35;-1.70;99.90
30150;DHT22;16962;48.646;9.026;2024-01-15T06:57:23;-1.80;99.90
30150;DHT22;16962;48.646;9.026;2024-01-15T07:00:10;-1.70;99.90
30150;DHT22;16962;48.646;9.026;2024-01-15T07:03:01;-1.70;99.90
30150;DHT22;16962;48.646;9.026;2024-01-15T07:05:48;-1.70;99.90
30150;DHT22;16962;48.646;9.026;2024-01-15T07:08:39;-1.70;24.10
30150;DHT22;16962;48.646;9.026;2024-01-15T07:11:27;-1.70;1.00
30150;DHT22;16962;48.646;9.026;2024-01-15T07:14:32;-1.70;1.00
30150;DHT22;16962;48.646;9.026;2024-01-15T07:17:23;-1.70;1.00
30150;DHT22;16962;48.646;9.026;2024-01-15T07:20:20;-1.70;99.90
30150;DHT22;16962;48.646;9.026;2024-01-15T07:23:10;-1.70;1.00
30150;DHT22;16962;48.646;9.026;2024-01-15T07:25:57;-1.60;99.90
30150;DHT22;16962;48.646;9.026;2024-01-15T07:28:48;-1.60;99.90
30150;DHT22;16962;48.646;9.026;2024-01-15T07:31:35;-1.60;99.90
30150;DHT22;16962;48.646;9.026;2024-01-15T07:34:23;-1.50;1.00
30150;DHT22;16962;48.646;9.026;2024-01-15T07:37:17;-1.50;99.90
30150;DHT22;16962;48.646;9.026;2024-01-15T07:40:19;-1.40;79.30
30150;DHT22;16962;48.646;9.026;2024-01-15T07:43:39;-1.40;1.00
30150;DHT22;16962;48.646;9.026;2024-01-15T07:46:29;-1.40;99.90
30150;DHT22;16962;48.646;9.026;2024-01-15T07:49:16;-1.40;99.90
30150;DHT22;16962;48.646;9.026;2024-01-15T07:52:06;-1.40;99.90
30150;DHT22;16962;48.646;9.026;2024-01-15T07:54:56;-1.40;99.90
30150;DHT22;16962;48.646;9.026;2024-01-15T07:57:49;-1.40;99.90
30150;DHT22;16962;48.646;9.026;2024-01-15T08:00:52;-1.30;1.00
30150;DHT22;16962;48.646;9.026;2024-01-15T08:03:40;-1.30;1.00
30150;DHT22;16962;48.646;9.026;2024-01-15T08:06:27;-1.30;1.00
30150;DHT22;16962;48.646;9.026;2024-01-15T08:09:16;-1.30;1.00
30150;DHT22;16962;48.646;9.026;2024-01-15T08:12:04;-1.30;1.00
30150;DHT22;16962;48.646;9.026;2024-01-15T08:14:53;-1.20;99.90
30150;DHT22;16962;48.646;9.026;2024-01-15T08:17:42;-1.20;99.90
30150;DHT22;16962;48.646;9.026;2024-01-15T08:20:32;-1.30;99.90
30150;DHT22;16962;48.646;9.026;2024-01-15T08:23:21;-1.20;99.90
30150;DHT22;16962;48.646;9.026;2024-01-15T08:26:08;-1.20;99.90
30150;DHT22;16962;48.646;9.026;2024-01-15T08:28:58;-1.10;99.90
30150;DHT22;16962;48.646;9.026;2024-01-15T08:31:45;-1.10;4.90
30150;DHT22;16962;48.646;9.026;2024-01-15T08:34:34;-1.00;1.00
30150;DHT22;16962;48.646;9.026;2024-01-15T08:37:22;-1.00;1.00
30150;DHT22;16962;48.646;9.026;2024-01-15T08:40:12;-1.00;1.00
30150;DHT22;16962;48.646;9.026;2024-01-15T08:43:00;-0.90;99.90
30150;DHT22;16962;48.646;9.026;2024-01-15T08:45:50;-0.80;99.90
30150;DHT22;16962;48.646;9.026;2024-01-15T08:48:42;-0.80;99.90
30150;DHT22;16962;48.646;9.026;2024-01-15T08:51:32;-0.70;99.90
30150;DHT22;16962;48.646;9.026;2024-01-15T08:54:20;-0.60;99.90
30150;DHT22;16962;48.646;9.026;2024-01-15T08:57:08;-0.50;99.90
30150;DHT22;16962;48.646;9.026;2024-01-15T08:59:55;-0.50;99.90
30150;DHT22;16962;48.646;9.026;2024-01-15T09:02:50;-0.40;99.90
30150;DHT22;16962;48.646;9.026;2024-01-15T09:05:53;-0.40;99.90
30150;DHT22;16962;48.646;9.026;2024-01-15T09:09:06;-0.40;99.90
30150;DHT22;16962;48.646;9.026;2024-01-15T09:12:07;-0.40;99.90
30150;DHT22;16962;48.646;9.026;2024-01-15T09:14:57;-0.40;99.90
30150;DHT22;16962;48.646;9.026;2024-01-15T09:17:45;-0.40;99.90
30150;DHT22;16962;48.646;9.026;2024-01-15T09:20:37;-0.30;99.90
30150;DHT22;16962;48.646;9.026;2024-01-15T09:23:31;-0.40;99.90
30150;DHT22;16962;48.646;9.026;2024-01-15T09:26:22;-0.30;99.90
30150;DHT22;16962;48.646;9.026;2024-01-15T09:29:48;-0.30;99.90
30150;DHT22;16962;48.646;9.026;2024-01-15T09:33:11;-0.30;99.90
30150;DHT22;16962;48.646;9.026;2024-01-15T09:36:09;-0.20;99.90
30150;DHT22;16962;48.646;9.026;2024-01-15T09:39:12;-0.20;99.90
30150;DHT22;16962;48.646;9.026;2024-01-15T09:42:21;-0.10;99.90
30150;DHT22;16962;48.646;9.026;2024-01-15T09:45:41;0.00;99.90
30150;DHT22;16962;48.646;9.026;2024-01-15T09:48:45;0.00;99.90
30150;DHT22;16962;48.646;9.026;2024-01-15T09:51:45;0.00;99.90
30150;DHT22;16962;48.646;9.026;2024-01-15T09:54:58;0.00;99.90
30150;DHT22;16962;48.646;9.026;2024-01-15T09:57:55;0.00;99.60
30150;DHT22;16962;48.646;9.026;2024-01-15T10:00:52;0.10;94.40
30150;DHT22;16962;48.646;9.026;2024-01-15T10:03:40;0.10;82.30
30150;DHT22;16962;48.646;9.026;2024-01-15T10:06:32;0.10;99.90
30150;DHT22;16962;48.646;9.026;2024-01-15T10:09:29;0.00;99.90
30150;DHT22;16962;48.646;9.026;2024-01-15T10:12:24;0.00;99.90
30150;DHT22;16962;48.646;9.026;2024-01-15T10:15:24;0.00;99.90
30150;DHT22;16962;48.646;9.026;2024-01-15T10:18:48;0.00;99.90
30150;DHT22;16962;48.646;9.026;2024-01-15T10:21:58;0.00;99.90
30150;DHT22;16962;48.646;9.026;2024-01-15T10:24:52;0.10;99.90
30150;DHT22;16962;48.646;9.026;2024-01-15T10:28:02;0.00;99.90
30150;DHT22;16962;48.646;9.026;2024-01-15T10:30:59;0.10;99.90
30150;DHT22;16962;48.646;9.026;2024-01-15T10:37:36;0.10;97.70
30150;DHT22;16962;48.646;9.026;2024-01-15T10:40:39;0.20;42.10
30150;DHT22;16962;48.646;9.026;2024-01-15T10:43:38;0.20;35.20
30150;DHT22;16962;48.646;9.026;2024-01-15T10:46:38;0.20;29.60
30150;DHT22;16962;48.646;9.026;2024-01-15T10:49:34;0.20;31.40
30150;DHT22;16962;48.646;9.026;2024-01-15T10:52:52;0.30;39.10
30150;DHT22;16962;48.646;9.026;2024-01-15T10:56:05;0.20;38.70
30150;DHT22;16962;48.646;9.026;2024-01-15T11:02:50;0.20;54.90
30150;DHT22;16962;48.646;9.026;2024-01-15T11:10:42;0.10;99.90
30150;DHT22;16962;48.646;9.026;2024-01-15T11:14:10;0.10;99.90
30150;DHT22;16962;48.646;9.026;2024-01-15T11:18:21;0.10;99.90
30150;DHT22;16962;48.646;9.026;2024-01-15T11:21:44;0.00;99.90
30150;DHT22;16962;48.646;9.026;2024-01-15T11:25:38;0.00;99.90
30150;DHT22;16962;48.646;9.026;2024-01-15T11:28:57;0.00;99.90
30150;DHT22;16962;48.646;9.026;2024-01-15T11:31:58;0.00;99.90
30150;DHT22;16962;48.646;9.026;2024-01-15T11:38:43;0.00;99.90
30150;DHT22;16962;48.646;9.026;2024-01-15T11:41:50;0.00;99.90
30150;DHT22;16962;48.646;9.026;2024-01-15T11:45:02;0.00;99.90
30150;DHT22;16962;48.646;9.026;2024-01-15T11:48:14;0.00;99.90
30150;DHT22;16962;48.646;9.026;2024-01-15T11:51:27;0.00;99.90
30150;DHT22;16962;48.646;9.026;2024-01-15T11:54:55;0.00;99.90
30150;DHT22;16962;48.646;9.026;2024-01-15T11:58:16;-0.10;99.90
30150;DHT22;16962;48.646;9.026;2024-01-15T12:01:23;-0.20;99.90
30150;DHT22;16962;48.646;9.026;2024-01-15T12:04:34;-0.30;1.00
30150;DHT22;16962;48.646;9.026;2024-01-15T12:07:53;-0.30;99.90
30150;DHT22;16962;48.646;9.026;2024-01-15T12:11:19;-0.30;99.90
30150;DHT22;16962;48.646;9.026;2024-01-15T12:15:03;-0.30;99.90
30150;DHT22;16962;48.646;9.026;2024-01-15T12:18:19;-0.40;99.90
30150;DHT22;16962;48.646;9.026;2024-01-15T12:21:27;-0.40;1.00
30150;DHT22;16962;48.646;9.026;2024-01-15T12:24:17;-0.50;1.00
30150;DHT22;16962;48.646;9.026;2024-01-15T12:27:05;-0.50;1.00
30150;DHT22;16962;48.646;9.026;2024-01-15T12:30:02;-0.60;1.00
30150;DHT22;16962;48.646;9.026;2024-01-15T12:33:03;-0.50;1.00
30150;DHT22;16962;48.646;9.026;2024-01-15T12:35:54;-0.50;1.00
30150;DHT22;16962;48.646;9.026;2024-01-15T12:38:41;-0.50;1.00
30150;DHT22;16962;48.646;9.026;2024-01-15T12:41:29;-0.40;1.00
30150;DHT22;16962;48.646;9.026;2024-01-15T12:44:19;-0.40;1.00
30150;DHT22;16962;48.646;9.026;2024-01-15T12:47:23;-0.40;16.60
30150;DHT22;16962;48.646;9.026;2024-01-15T12:50:15;-0.50;43.70
30150;DHT22;16962;48.646;9.026;2024-01-15T12:53:06;-0.60;64.40
30150;DHT22;16962;48.646;9.026;2024-01-15T12:55:55;-0.60;83.00
30150;DHT22;16962;48.646;9.026;2024-01-15T13:01:58;-0.60;95.20
30150;DHT22;16962;48.646;9.026;2024-01-15T13:04:47;-0.60;99.80
30150;DHT22;16962;48.646;9.026;2024-01-15T13:07:38;-0.60;99.90
30150;DHT22;16962;48.646;9.026;2024-01-15T13:10:26;-0.50;99.90
30150;DHT22;16962;48.646;9.026;2024-01-15T13:13:17;-0.60;99.90
30150;DHT22;16962;48.646;9.026;2024-01-15T13:16:05;-0.60;99.90
30150;DHT22;16962;48.646;9.026;2024-01-15T13:18:53;-0.60;99.90
30150;DHT22;16962;48.646;9.026;2024-01-15T13:21:45;-0.50;99.90
30150;DHT22;16962;48.646;9.026;2024-01-15T13:24:33;-0.60;99.90
30150;DHT22;16962;48.646;9.026;2024-01-15T13:27:28;-0.60;99.90
30150;DHT22;16962;48.646;9.026;2024-01-15T13:30:21;-0.60;99.90
30150;DHT22;16962;48.646;9.026;2024-01-15T13:33:16;-0.60;99.90
30150;DHT22;16962;48.646;9.026;2024-01-15T13:36:07;-0.60;99.90
30150;DHT22;16962;48.646;9.026;2024-01-15T13:39:12;-0.60;99.90
30150;DHT22;16962;48.646;9.026;2024-01-15T13:42:09;-0.60;99.90
30150;DHT22;16962;48.646;9.026;2024-01-15T13:49:12;-0.60;99.90
30150;DHT22;16962;48.646;9.026;2024-01-15T13:52:21;-0.60;99.90
30150;DHT22;16962;48.646;9.026;2024-01-15T13:55:27;-0.60;99.90
30150;DHT22;16962;48.646;9.026;2024-01-15T13:58:21;-0.60;99.90
30150;DHT22;16962;48.646;9.026;2024-01-15T14:01:13;-0.60;99.90
30150;DHT22;16962;48.646;9.026;2024-01-15T14:04:01;-0.60;99.90
30150;DHT22;16962;48.646;9.026;2024-01-15T14:06:51;-0.50;99.90
30150;DHT22;16962;48.646;9.026;2024-01-15T14:09:39;-0.60;99.90
30150;DHT22;16962;48.646;9.026;2024-01-15T14:12:28;-0.60;99.90
30150;DHT22;16962;48.646;9.026;2024-01-15T14:15:35;-0.60;99.90
30150;DHT22;16962;48.646;9.026;2024-01-15T14:19:09;-0.60;99.90
30150;DHT22;16962;48.646;9.026;2024-01-15T14:22:28;-0.60;99.90
30150;DHT22;16962;48.646;9.026;2024-01-15T14:25:19;-0.70;99.90
30150;DHT22;16962;48.646;9.026;2024-01-15T14:28:08;-0.60;99.90
30150;DHT22;16962;48.646;9.026;2024-01-15T14:30:56;-0.60;99.90
30150;DHT22;16962;48.646;9.026;2024-01-15T14:33:50;-0.60;99.90
30150;DHT22;16962;48.646;9.026;2024-01-15T14:36:46;-0.60;99.90
30150;DHT22;16962;48.646;9.026;2024-01-15T14:39:37;-0.60;99.90
30150;DHT22;16962;48.646;9.026;2024-01-15T14:42:37;-0.60;99.90
30150;DHT22;16962;48.646;9.026;2024-01-15T14:45:46;-0.60;99.90
30150;DHT22;16962;48.646;9.026;2024-01-15T14:48:54;-0.60;99.90
30150;DHT22;16962;48.646;9.026;2024-01-15T14:51:53;-0.60;99.90
30150;DHT22;16962;48.646;9.026;2024-01-15T14:55:22;-0.50;99.90
30150;DHT22;16962;48.646;9.026;2024-01-15T14:58:32;-0.60;99.90
30150;DHT22;16962;48.646;9.026;2024-01-15T15:01:20;-0.70;99.90
30150;DHT22;16962;48.646;9.026;2024-01-15T15:04:08;-0.70;99.90
30150;DHT22;16962;48.646;9.026;2024-01-15T15:07:00;-0.70;99.90
30150;DHT22;16962;48.646;9.026;2024-01-15T15:09:49;-0.70;99.90
30150;DHT22;16962;48.646;9.026;2024-01-15T15:12:41;-0.80;99.90
30150;DHT22;16962;48.646;9.026;2024-01-15T15:15:29;-0.80;99.90
30150;DHT22;16962;48.646;9.026;2024-01-15T15:18:27;-0.80;99.90
30150;DHT22;16962;48.646;9.026;2024-01-15T15:21:28;-0.70;99.90
30150;DHT22;16962;48.646;9.026;2024-01-15T15:24:42;-0.70;99.90
30150;DHT22;16962;48.646;9.026;2024-01-15T15:27:36;-0.80;99.90
30150;DHT22;16962;48.646;9.026;2024-01-15T15:30:24;-0.80;99.90
30150;DHT22;16962;48.646;9.026;2024-01-15T15:33:12;-0.90;99.90
30150;DHT22;16962;48.646;9.026;2024-01-15T15:36:00;-0.90;96.80
30150;DHT22;16962;48.646;9.026;2024-01-15T15:38:52;-0.90;66.60
30150;DHT22;16962;48.646;9.026;2024-01-15T15:42:04;-1.00;25.70
30150;DHT22;16962;48.646;9.026;2024-01-15T15:44:51;-1.10;1.00
30150;DHT22;16962;48.646;9.026;2024-01-15T15:47:43;-1.10;1.00
30150;DHT22;16962;48.646;9.026;2024-01-15T15:50:31;-1.20;99.90
30150;DHT22;16962;48.646;9.026;2024-01-15T15:53:23;-1.20;95.70
30150;DHT22;16962;48.646;9.026;2024-01-15T15:56:12;-1.20;99.90
30150;DHT22;16962;48.646;9.026;2024-01-15T15:59:00;-1.30;1.00
30150;DHT22;16962;48.646;9.026;2024-01-15T16:01:48;-1.30;1.00
30150;DHT22;16962;48.646;9.026;2024-01-15T16:04:44;-1.30;1.00
30150;DHT22;16962;48.646;9.026;2024-01-15T16:07:44;-1.30;99.90
30150;DHT22;16962;48.646;9.026;2024-01-15T16:10:31;-1.30;99.90
30150;DHT22;16962;48.646;9.026;2024-01-15T16:13:19;-1.40;99.90
30150;DHT22;16962;48.646;9.026;2024-01-15T16:16:08;-1.40;99.90
30150;DHT22;16962;48.646;9.026;2024-01-15T16:19:15;-1.40;25.20
30150;DHT22;16962;48.646;9.026;2024-01-15T16:22:23;-1.40;99.90
30150;DHT22;16962;48.646;9.026;2024-01-15T16:25:42;-1.40;99.90
30150;DHT22;16962;48.646;9.026;2024-01-15T16:28:32;-1.50;99.90
30150;DHT22;16962;48.646;9.026;2024-01-15T16:31:19;-1.50;23.20
30150;DHT22;16962;48.646;9.026;2024-01-15T16:34:17;-1.50;1.00
30150;DHT22;16962;48.646;9.026;2024-01-15T16:37:22;-1.50;1.00
30150;DHT22;16962;48.646;9.026;2024-01-15T16:40:15;-1.50;99.90
30150;DHT22;16962;48.646;9.026;2024-01-15T16:43:03;-1.50;99.90
30150;DHT22;16962;48.646;9.026;2024-01-15T16:45:56;-1.50;1.00
30150;DHT22;16962;48.646;9.026;2024-01-15T16:48:46;-1.60;99.90
30150;DHT22;16962;48.646;9.026;2024-01-15T16:51:34;-1.60;99.90
30150;DHT22;16962;48.646;9.026;2024-01-15T16:54:22;-1.60;1.00
30150;DHT22;16962;48.646;9.026;2024-01-15T16:57:12;-1.60;99.90
30150;DHT22;16962;48.646;9.026;2024-01-15T17:00:02;-1.60;99.90
30150;DHT22;16962;48.646;9.026;2024-01-15T17:02:55;-1.60;99.90
30150;DHT22;16962;48.646;9.026;2024-01-15T17:05:42;-1.60;1.00
30150;DHT22;16962;48.646;9.026;2024-01-15T17:08:30;-1.60;1.00
30150;DHT22;16962;48.646;9.026;2024-01-15T17:11:44;-1.60;92.90
30150;DHT22;16962;48.646;9.026;2024-01-15T17:14:58;-1.60;99.90
30150;DHT22;16962;48.646;9.026;2024-01-15T17:18:00;-1.60;1.00
30150;DHT22;16962;48.646;9.026;2024-01-15T17:20:58;-1.70;99.90
30150;DHT22;16962;48.646;9.026;2024-01-15T17:23:59;-1.70;99.90
30150;DHT22;16962;48.646;9.026;2024-01-15T17:27:05;-1.70;99.90
30150;DHT22;16962;48.646;9.026;2024-01-15T17:30:08;-1.70;1.00
30150;DHT22;16962;48.646;9.026;2024-01-15T17:33:14;-1.70;99.90
30150;DHT22;16962;48.646;9.026;2024-01-15T17:36:05;-1.80;99.90
30150;DHT22;16962;48.646;9.026;2024-01-15T17:39:07;-1.80;99.90
30150;DHT22;16962;48.646;9.026;2024-01-15T17:42:11;-1.80;99.90
30150;DHT22;16962;48.646;9.026;2024-01-15T17:45:30;-1.80;1.00
30150;DHT22;16962;48.646;9.026;2024-01-15T17:48:28;-1.80;1.00
30150;DHT22;16962;48.646;9.026;2024-01-15T17:51:27;-1.70;1.00
30150;DHT22;16962;48.646;9.026;2024-01-15T17:54:41;-1.70;1.00
30150;DHT22;16962;48.646;9.026;2024-01-15T17:57:40;-1.70;1.00
30150;DHT22;16962;48.646;9.026;2024-01-15T18:00:35;-1.70;1.00
30150;DHT22;16962;48.646;9.026;2024-01-15T18:03:40;-1.70;99.90
30150;DHT22;16962;48.646;9.026;2024-01-15T18:06:33;-1.70;99.90
30150;DHT22;16962;48.646;9.026;2024-01-15T18:09:38;-1.80;99.90
30150;DHT22;16962;48.646;9.026;2024-01-15T18:12:30;-1.80;1.00
30150;DHT22;16962;48.646;9.026;2024-01-15T18:15:22;-1.90;1.00
30150;DHT22;16962;48.646;9.026;2024-01-15T18:18:29;-1.90;3.40
30150;DHT22;16962;48.646;9.026;2024-01-15T18:21:37;-1.90;56.00
30150;DHT22;16962;48.646;9.026;2024-01-15T18:24:26;-1.80;1.00
30150;DHT22;16962;48.646;9.026;2024-01-15T18:27:19;-1.80;99.90
30150;DHT22;16962;48.646;9.026;2024-01-15T18:30:16;-1.80;99.90
30150;DHT22;16962;48.646;9.026;2024-01-15T18:33:11;-1.80;1.00
30150;DHT22;16962;48.646;9.026;2024-01-15T18:36:26;-1.80;1.00
30150;DHT22;16962;48.646;9.026;2024-01-15T18:39:15;-1.80;99.90
30150;DHT22;16962;48.646;9.026;2024-01-15T18:42:04;-1.90;99.90
30150;DHT22;16962;48.646;9.026;2024-01-15T18:44:58;-1.80;99.90
30150;DHT22;16962;48.646;9.026;2024-01-15T18:47:46;-1.80;99.90
30150;DHT22;16962;48.646;9.026;2024-01-15T18:50:39;-1.80;99.90
30150;DHT22;16962;48.646;9.026;2024-01-15T18:53:27;-1.80;1.00